Time;durP1;ratioP1;P1;durP2;ratioP2;P2;SDS_P1;SDS_P2;PMS_P1;PMS_P2;Temp;Humidity;BMP_temperature;BMP_pressure;BME280_temperature;BME280_humidity;BME280_pressure;Samples;Min_cycle;Max_cycle;Signal;HPM_P1;HPM_P2
2022/08/06 00:01:51;;;;;;;17.45;10.07;;;;;;;24.89;46.79;99959.38;5093469;28;20402;-70
2022/08/06 00:04:17;;;;;;;17.15;9.77;;;;;;;24.89;46.64;99959.38;5093408;28;20558;-69
2022/08/06 00:06:43;;;;;;;14.27;9.80;;;;;;;24.89;46.69;99955.84;5112887;28;20078;-70
2022/08/06 00:09:08;;;;;;;11.32;8.93;;;;;;;24.88;46.72;99955.00;5113704;28;20080;-70
2022/08/06 00:11:34;;;;;;;12.57;8.45;;;;;;;24.84;46.62;99961.88;5114146;28;20110;-70
2022/08/06 00:13:59;;;;;;;13.23;9.65;;;;;;;24.80;47.14;99957.88;5113907;28;20036;-70
2022/08/06 00:16:25;;;;;;;13.15;8.63;;;;;;;24.81;47.24;99965.81;5113686;28;20081;-70
2022/08/06 00:18:51;;;;;;;18.40;9.90;;;;;;;24.79;47.00;99962.47;5113302;28;20043;-70
2022/08/06 00:21:17;;;;;;;19.65;8.98;;;;;;;24.81;46.95;99967.69;5112548;28;20067;-70
2022/08/06 00:23:43;;;;;;;19.67;9.65;;;;;;;24.76;46.84;99957.47;5113504;28;20035;-70
2022/08/06 00:26:08;;;;;;;14.07;9.55;;;;;;;24.75;47.09;99965.81;5114119;28;20032;-71
2022/08/06 00:28:34;;;;;;;16.02;8.90;;;;;;;24.71;47.18;99964.53;5113281;28;20091;-71
2022/08/06 00:31:01;;;;;;;13.18;9.50;;;;;;;24.67;47.26;99962.19;5113095;28;20035;-70
2022/08/06 00:33:26;;;;;;;18.23;9.07;;;;;;;24.70;47.69;99954.75;5112800;28;20482;-71
2022/08/06 00:35:52;;;;;;;13.15;8.90;;;;;;;24.70;47.67;99960.16;5112651;28;20036;-70
2022/08/06 00:38:17;;;;;;;14.60;9.70;;;;;;;24.72;47.22;99963.50;5113000;28;20118;-70
2022/08/06 00:40:43;;;;;;;16.45;10.43;;;;;;;24.70;47.32;99952.91;5112810;28;20047;-70
2022/08/06 00:43:09;;;;;;;11.70;9.10;;;;;;;24.70;47.31;99952.91;5113401;28;20039;-70
2022/08/06 00:45:35;;;;;;;19.35;10.20;;;;;;;24.67;47.67;99953.25;5112896;28;20039;-70
2022/08/06 00:48:01;;;;;;;12.63;9.45;;;;;;;24.63;47.33;99952.81;5109732;28;20024;-70
2022/08/06 00:50:27;;;;;;;17.42;9.77;;;;;;;24.67;47.78;99964.09;5112690;28;20462;-70
2022/08/06 00:52:53;;;;;;;15.15;10.10;;;;;;;24.71;47.49;99961.84;5113363;28;20122;-70
2022/08/06 00:55:19;;;;;;;15.57;9.52;;;;;;;24.72;47.41;99963.50;5113002;28;20110;-70
2022/08/06 00:57:47;;;;;;;15.00;9.35;;;;;;;24.71;47.31;99967.25;5111641;28;20418;-70
2022/08/06 01:00:13;;;;;;;13.88;9.18;;;;;;;24.72;47.42;99968.91;5112652;28;20043;-70
2022/08/06 01:02:39;;;;;;;14.55;10.25;;;;;;;24.65;47.61;99966.97;5111894;28;20027;-70
2022/08/06 01:05:05;;;;;;;15.77;9.10;;;;;;;24.62;47.48;99972.81;5113215;28;20139;-70
2022/08/06 01:07:31;;;;;;;11.30;8.93;;;;;;;24.61;47.82;99965.72;5112720;28;20040;-70
2022/08/06 01:09:56;;;;;;;18.33;9.93;;;;;;;24.61;47.98;99970.28;5113154;28;20036;-70
2022/08/06 01:12:22;;;;;;;13.88;8.75;;;;;;;24.65;47.80;99969.69;5112265;28;20019;-69
2022/08/06 01:14:47;;;;;;;12.15;9.30;;;;;;;24.61;47.96;99962.19;5112818;28;20405;-70
2022/08/06 01:17:25;;;;;;;12.15;10.05;;;;;;;24.60;47.85;99957.81;5111896;28;20024;-70
2022/08/06 01:19:51;;;;;;;13.57;9.73;;;;;;;24.57;47.90;99978.00;5112752;28;20039;-70
2022/08/06 01:22:39;;;;;;;11.68;9.40;;;;;;;24.56;47.91;99973.63;5094685;28;20043;-70
2022/08/06 01:25:28;;;;;;;19.17;10.48;;;;;;;24.56;48.22;99970.91;5113272;28;20092;-70
2022/08/06 01:28:20;;;;;;;12.98;9.73;;;;;;;24.54;48.38;99970.28;5112712;28;20039;-70
2022/08/06 01:30:50;;;;;;;;;;;;;;;24.46;48.27;99970.47;5112854;28;20035;-69
2022/08/06 01:33:44;;;;;;;13.40;8.77;;;;;;;24.48;48.47;99973.81;5112591;28;19926;-69
2022/08/06 01:36:16;;;;;;;15.80;9.85;;;;;;;24.46;48.58;99979.41;5113096;28;20043;-69
2022/08/06 01:38:46;;;;;;;14.82;10.10;;;;;;;24.46;48.25;99974.00;5091065;28;20032;-69
2022/08/06 01:41:38;;;;;;;18.45;10.30;;;;;;;24.48;48.20;99977.31;5095625;28;20127;-69
2022/08/06 01:44:05;;;;;;;16.60;9.00;;;;;;;24.48;48.53;99981.91;5114417;28;20490;-69
2022/08/06 01:46:32;;;;;;;14.43;8.98;;;;;;;24.47;48.64;99977.53;5116218;28;20036;-68
2022/08/06 01:49:00;;;;;;;13.13;10.15;;;;;;;24.44;48.65;99977.94;5116104;28;20035;-69
2022/08/06 01:51:27;;;;;;;12.57;9.20;;;;;;;24.41;48.89;99970.22;5115784;28;20039;-70
2022/08/06 01:53:53;;;;;;;15.98;8.93;;;;;;;24.41;48.48;99979.16;5116631;28;20039;-71
2022/08/06 01:56:22;;;;;;;15.77;9.55;;;;;;;24.43;48.40;99978.97;5115859;28;20058;-71
2022/08/06 01:58:50;;;;;;;15.60;9.25;;;;;;;24.45;48.70;99977.72;5116340;28;20070;-71
2022/08/06 02:01:18;;;;;;;13.15;9.13;;;;;;;24.47;48.85;99981.06;5115980;28;20040;-71
2022/08/06 02:03:47;;;;;;;14.82;9.13;;;;;;;24.44;48.60;99978.75;5116708;28;20458;-71
2022/08/06 02:06:18;;;;;;;16.75;10.43;;;;;;;24.37;49.22;99976.03;5115838;28;20055;-70
2022/08/06 02:08:46;;;;;;;15.82;9.98;;;;;;;24.37;49.22;99983.31;5095767;28;20402;-71
2022/08/06 02:11:12;;;;;;;14.73;9.65;;;;;;;24.36;49.23;99973.53;5102315;28;20050;-71
2022/08/06 02:13:40;;;;;;;13.43;8.88;;;;;;;24.34;48.95;99981.81;5115917;28;20073;-72
2022/08/06 02:16:07;;;;;;;19.40;10.00;;;;;;;24.32;49.05;99981.22;5116232;28;20540;-71
2022/08/06 02:18:37;;;;;;;15.15;9.80;;;;;;;24.30;49.06;99986.00;5115837;28;20078;-72
2022/08/06 02:21:17;;;;;;;16.85;9.27;;;;;;;24.26;49.33;99986.59;5115864;28;20035;-70
2022/08/06 02:23:44;;;;;;;17.02;10.38;;;;;;;24.22;49.75;99984.28;5116109;28;20036;-71
2022/08/06 02:26:11;;;;;;;14.18;9.95;;;;;;;24.21;49.95;99988.03;5115663;28;20404;-71
2022/08/06 02:28:39;;;;;;;14.18;10.50;;;;;;;24.21;49.78;99981.75;5095614;28;20056;-71
2022/08/06 02:31:05;;;;;;;13.20;9.88;;;;;;;24.22;49.92;99991.53;5111557;28;20076;-71
2022/08/06 02:33:31;;;;;;;13.38;9.80;;;;;;;24.25;49.82;99995.75;5096263;28;20027;-71
2022/08/06 02:36:06;;;;;;;11.68;9.85;;;;;;;24.35;49.47;99988.09;5115508;28;20057;-72
2022/08/06 02:38:47;;;;;;;11.95;9.85;;;;;;;24.47;49.22;99986.47;5115002;28;20066;-70
2022/08/06 02:41:35;;;;;;;15.30;9.63;;;;;;;24.57;49.18;99996.94;5099422;28;20030;-72
2022/08/06 02:44:48;;;;;;;18.50;9.77;;;;;;;24.64;48.86;99992.34;5111167;28;21681;-72
2022/08/06 02:47:32;;;;;;;18.23;11.65;;;;;;;24.72;48.46;99996.78;5089979;28;20044;-72
2022/08/06 02:50:00;;;;;;;15.80;9.77;;;;;;;24.77;48.11;99991.63;5114746;28;20035;-72
2022/08/06 02:52:38;;;;;;;17.52;11.15;;;;;;;24.80;49.02;99991.22;5104137;28;20088;-71
2022/08/06 02:55:14;;;;;;;13.50;10.07;;;;;;;24.80;48.66;99988.50;5114620;28;20069;-72
2022/08/06 02:58:07;;;;;;;11.40;9.98;;;;;;;24.78;48.71;99993.28;5114507;28;20051;-71
2022/08/06 03:00:38;;;;;;;13.80;10.18;;;;;;;24.72;49.19;99983.25;5111067;28;20032;-71
2022/08/06 03:03:07;;;;;;;16.30;10.52;;;;;;;24.78;48.86;99995.13;5114268;28;20038;-72
2022/08/06 03:05:35;;;;;;;18.38;10.32;;;;;;;24.78;49.00;99981.63;5115260;28;20157;-72
2022/08/06 03:08:02;;;;;;;12.25;9.05;;;;;;;24.77;48.72;99977.25;5114756;28;20023;-72
2022/08/06 03:10:29;;;;;;;16.70;10.43;;;;;;;24.70;49.10;99979.09;5114337;28;20113;-72
2022/08/06 03:12:57;;;;;;;18.10;10.38;;;;;;;24.63;49.61;99979.88;5114058;28;20390;-71
2022/08/06 03:15:24;;;;;;;14.18;9.82;;;;;;;24.60;49.71;99984.84;5114548;28;20119;-72
2022/08/06 03:17:51;;;;;;;19.75;9.88;;;;;;;24.58;50.37;99982.38;5114324;28;20481;-72
2022/08/06 03:20:20;;;;;;;13.95;10.85;;;;;;;24.60;50.41;99993.81;5113938;28;20031;-71
2022/08/06 03:22:49;;;;;;;13.68;9.95;;;;;;;24.56;50.50;99983.63;5113567;28;20515;-70
2022/08/06 03:25:16;;;;;;;15.43;10.30;;;;;;;24.55;51.08;99990.88;5114139;28;20035;-71
2022/08/06 03:27:43;;;;;;;13.40;9.38;;;;;;;24.57;50.61;99996.94;5115073;28;20019;-72
2022/08/06 03:30:09;;;;;;;16.67;11.32;;;;;;;24.61;51.01;99994.66;5114063;28;20110;-71
2022/08/06 03:32:36;;;;;;;15.40;10.52;;;;;;;24.61;50.65;99992.78;5113588;28;20046;-72
2022/08/06 03:35:03;;;;;;;11.20;9.63;;;;;;;24.66;50.83;99989.47;5113246;28;20023;-71
2022/08/06 03:37:30;;;;;;;14.23;10.20;;;;;;;24.68;50.42;99993.63;5113527;28;20059;-71
2022/08/06 03:39:59;;;;;;;15.98;10.80;;;;;;;24.75;50.58;99993.69;5113904;28;20533;-71
2022/08/06 03:42:25;;;;;;;15.98;9.82;;;;;;;24.84;49.62;99983.50;5113518;28;20483;-71
2022/08/06 03:44:50;;;;;;;19.98;10.43;;;;;;;24.98;49.33;99989.81;5113562;28;20118;-72
2022/08/06 03:47:32;;;;;;;22.40;11.35;;;;;;;25.06;49.46;99980.66;5113001;28;20039;-71
2022/08/06 03:50:22;;;;;;;14.90;10.32;;;;;;;25.05;49.57;99976.28;5103206;28;20031;-71
2022/08/06 03:52:59;;;;;;;14.95;9.50;;;;;;;25.07;49.32;99988.56;5113751;28;20126;-71
2022/08/06 03:55:28;;;;;;;18.45;10.80;;;;;;;25.12;49.66;99996.06;5112712;28;20046;-72
2022/08/06 03:57:57;;;;;;;14.07;9.95;;;;;;;25.16;49.34;99991.91;5112410;28;20040;-72
2022/08/06 04:00:26;;;;;;;16.30;10.45;;;;;;;25.25;49.07;99990.66;5113707;28;20062;-71
2022/08/06 04:02:54;;;;;;;12.27;8.50;;;;;;;25.37;48.82;99996.31;5113579;28;20386;-71
2022/08/06 04:05:31;;;;;;;16.83;11.85;;;;;;;25.47;48.58;99997.78;5112928;28;20023;-71
2022/08/06 04:08:03;;;;;;;12.82;9.73;;;;;;;25.51;48.36;99983.66;5113753;28;20106;-71
2022/08/06 04:10:50;;;;;;;17.67;9.57;;;;;;;25.55;48.38;99995.72;5113023;28;20114;-71
2022/08/06 04:13:23;;;;;;;20.40;10.82;;;;;;;25.54;48.58;99990.53;5112747;28;20036;-71
2022/08/06 04:15:50;;;;;;;15.18;10.63;;;;;;;25.55;48.74;99984.88;5113318;28;20035;-71
2022/08/06 04:18:18;;;;;;;13.00;10.85;;;;;;;25.57;48.64;99993.63;5113070;28;20096;-71
2022/08/06 04:20:47;;;;;;;14.70;10.38;;;;;;;25.58;48.64;99995.31;5113979;28;20065;-72
2022/08/06 04:23:13;;;;;;;13.60;10.18;;;;;;;25.61;48.90;99996.75;5113416;28;20063;-72
2022/08/06 04:25:42;;;;;;;14.32;9.82;;;;;;;25.65;48.91;100002.63;5112380;28;20051;-72
2022/08/06 04:28:09;;;;;;;18.50;11.10;;;;;;;25.69;48.66;100004.69;5109899;28;20023;-72
2022/08/06 04:30:35;;;;;;;13.73;9.35;;;;;;;25.75;48.47;99997.59;5112845;28;20042;-72
2022/08/06 04:33:06;;;;;;;16.58;11.90;;;;;;;25.84;48.73;100006.34;5113335;28;20046;-72
2022/08/06 04:35:32;;;;;;;12.13;9.38;;;;;;;25.89;48.48;100004.66;5112198;28;20506;-72
2022/08/06 04:38:00;;;;;;;12.60;9.90;;;;;;;25.96;48.09;99992.97;5112090;28;20039;-74
2022/08/06 04:40:26;;;;;;;16.10;10.18;;;;;;;26.04;48.03;100000.91;5111913;28;20035;-73
2022/08/06 04:42:52;;;;;;;11.27;9.80;;;;;;;26.16;47.93;99992.97;5112688;28;20035;-72
2022/08/06 04:45:18;;;;;;;13.25;9.90;;;;;;;26.31;47.93;99992.72;5112423;28;20039;-72
2022/08/06 04:47:45;;;;;;;17.30;9.93;;;;;;;26.49;47.87;99994.72;5112567;28;20028;-71
2022/08/06 04:50:11;;;;;;;17.50;10.30;;;;;;;26.77;47.40;99997.13;5113035;28;20054;-71
2022/08/06 04:52:37;;;;;;;16.90;9.45;;;;;;;27.07;46.51;99985.69;5112420;28;20066;-72
2022/08/06 04:55:03;;;;;;;15.20;9.90;;;;;;;27.35;46.24;99987.16;5112852;28;20498;-72
2022/08/06 04:57:29;;;;;;;17.30;9.48;;;;;;;27.58;45.80;99988.47;5112427;28;20055;-72
2022/08/06 04:59:54;;;;;;;18.73;9.98;;;;;;;27.77;45.56;99988.53;5112020;28;20383;-72
2022/08/06 05:02:20;;;;;;;15.70;8.50;;;;;;;27.93;45.10;100001.53;5112359;28;20039;-72
2022/08/06 05:04:47;;;;;;;19.17;9.90;;;;;;;28.07;44.73;99988.66;5112289;28;20103;-72
2022/08/06 05:07:20;;;;;;;14.52;9.48;;;;;;;28.19;45.15;99991.47;5112717;28;20062;-72
2022/08/06 05:09:46;;;;;;;15.55;9.68;;;;;;;28.27;44.64;99991.19;5113070;28;20045;-71
2022/08/06 05:12:36;;;;;;;16.05;9.82;;;;;;;28.36;44.77;99996.31;5112782;28;20039;-71
2022/08/06 05:15:06;;;;;;;9.65;8.50;;;;;;;28.48;43.99;99997.19;5115073;28;20394;-72
2022/08/06 05:17:41;;;;;;;9.38;7.78;;;;;;;28.60;43.62;99989.09;5117119;28;20495;-71
2022/08/06 05:20:14;;;;;;;15.43;9.32;;;;;;;28.70;43.62;99986.66;5116041;28;20035;-71
2022/08/06 05:22:42;;;;;;;16.50;8.38;;;;;;;28.79;43.60;99981.75;5117069;28;20074;-72
2022/08/06 05:25:08;;;;;;;15.18;9.20;;;;;;;28.87;43.68;99988.75;5116611;28;20096;-72
2022/08/06 05:27:34;;;;;;;11.57;8.52;;;;;;;28.94;42.89;99984.06;5113536;28;20028;-72
2022/08/06 05:30:01;;;;;;;9.30;8.27;;;;;;;29.02;42.92;99989.19;5116232;28;20027;-71
2022/08/06 05:32:26;;;;;;;14.55;9.93;;;;;;;29.08;42.97;99992.84;5116267;28;20035;-72
2022/08/06 05:34:52;;;;;;;11.52;8.82;;;;;;;29.11;43.12;99997.84;5115921;28;20436;-71
2022/08/06 05:37:17;;;;;;;13.57;8.27;;;;;;;29.13;43.19;99984.84;5115924;28;20487;-71
2022/08/06 05:39:43;;;;;;;11.32;8.32;;;;;;;29.19;42.85;99983.06;5116395;28;20400;-71
2022/08/06 05:42:08;;;;;;;13.93;8.77;;;;;;;29.25;42.42;99990.31;5115134;28;20035;-71
2022/08/06 05:44:34;;;;;;;11.52;8.48;;;;;;;29.29;42.20;99982.50;5116796;28;20054;-71
2022/08/06 05:47:07;;;;;;;15.07;8.85;;;;;;;29.32;41.78;99987.47;5116433;28;20035;-72
2022/08/06 05:49:48;;;;;;;12.75;8.27;;;;;;;29.33;41.98;99981.78;5116203;28;20061;-71
2022/08/06 05:52:27;;;;;;;11.02;8.10;;;;;;;29.33;42.41;99981.78;5116335;28;20127;-72
2022/08/06 05:55:27;;;;;;;17.08;8.02;;;;;;;29.36;41.83;99980.50;5115823;28;20130;-72
2022/08/06 05:58:06;;;;;;;11.05;7.50;;;;;;;29.38;42.34;99979.22;5097990;28;20046;-71
2022/08/06 06:00:33;;;;;;;16.35;8.88;;;;;;;29.38;42.67;99983.84;5115455;28;20040;-71
2022/08/06 06:03:16;;;;;;;13.82;8.63;;;;;;;29.37;42.45;99977.56;5115621;28;20035;-71
2022/08/06 06:05:43;;;;;;;12.15;8.05;;;;;;;29.36;42.08;99981.34;5115353;28;20176;-71
2022/08/06 06:08:09;;;;;;;22.52;9.52;;;;;;;29.34;42.29;99985.31;5116255;28;20039;-71
2022/08/06 06:10:37;;;;;;;12.93;7.88;;;;;;;29.25;42.30;99979.41;5116025;28;20613;-71
2022/08/06 06:13:05;;;;;;;10.93;7.47;;;;;;;29.12;42.64;99990.53;5115811;28;20035;-71
2022/08/06 06:15:37;;;;;;;9.52;7.32;;;;;;;28.95;43.09;99985.72;5115252;28;20046;-71
2022/08/06 06:18:08;;;;;;;9.98;8.55;;;;;;;28.77;43.71;99981.16;5115489;28;20035;-71
2022/08/06 06:20:43;;;;;;;14.23;7.88;;;;;;;28.61;44.11;99983.41;5115640;28;20104;-71
2022/08/06 06:23:15;;;;;;;10.60;7.35;;;;;;;28.53;44.04;99980.19;5115392;28;20039;-71
2022/08/06 06:25:46;;;;;;;11.63;8.32;;;;;;;28.44;44.31;99975.06;5100673;28;20040;-70
2022/08/06 06:28:29;;;;;;;12.13;7.60;;;;;;;28.39;44.31;99976.81;5115447;28;20382;-70
2022/08/06 06:31:03;;;;;;;10.40;8.10;;;;;;;28.34;44.56;99974.78;5115131;28;20065;-71
2022/08/06 06:33:43;;;;;;;9.90;7.10;;;;;;;28.31;44.12;99976.03;5115614;28;20031;-70
2022/08/06 06:36:32;;;;;;;10.05;7.57;;;;;;;28.27;44.21;99969.41;5108517;28;20541;-70
2022/08/06 06:39:12;;;;;;;11.85;6.80;;;;;;;28.24;44.54;99969.84;5114241;28;20043;-71
2022/08/06 06:42:06;;;;;;;9.77;7.63;;;;;;;28.20;44.94;99970.53;5114166;28;20032;-71
2022/08/06 06:44:39;;;;;;;13.15;7.20;;;;;;;28.18;44.91;99970.75;5106950;28;20040;-72
2022/08/06 06:47:20;;;;;;;12.10;8.02;;;;;;;28.17;45.00;99977.25;5115491;28;20050;-72
2022/08/06 06:49:52;;;;;;;9.23;7.13;;;;;;;28.15;44.94;99972.03;5111292;28;20067;-71
2022/08/06 06:52:33;;;;;;;11.32;7.10;;;;;;;28.15;44.55;99976.66;5112507;28;20111;-72
2022/08/06 06:55:24;;;;;;;11.10;7.25;;;;;;;28.13;44.94;99974.16;5115747;28;20023;-72
2022/08/06 06:57:56;;;;;;;10.55;6.78;;;;;;;28.12;45.04;99977.94;5115141;28;20050;-72
2022/08/06 07:00:23;;;;;;;12.30;7.40;;;;;;;28.11;44.59;99967.28;5113809;28;20038;-72
2022/08/06 07:02:52;;;;;;;10.80;7.95;;;;;;;28.12;44.57;99972.50;5115107;28;20023;-72
2022/08/06 07:05:20;;;;;;;13.50;7.75;;;;;;;28.13;45.02;99970.63;5114653;28;20047;-72
2022/08/06 07:07:47;;;;;;;10.00;7.25;;;;;;;28.13;44.55;99973.34;5110919;28;20089;-72
2022/08/06 07:10:15;;;;;;;13.05;7.85;;;;;;;28.12;44.52;99966.25;5114509;28;20039;-71
2022/08/06 07:12:44;;;;;;;10.90;7.82;;;;;;;28.12;44.58;99966.25;5114639;28;20043;-72
2022/08/06 07:15:12;;;;;;;8.70;7.15;;;;;;;28.12;44.45;99968.97;5115052;28;20036;-72
2022/08/06 07:17:39;;;;;;;11.02;7.78;;;;;;;28.10;44.63;99966.44;5113362;28;20031;-72
2022/08/06 07:20:10;;;;;;;14.35;6.80;;;;;;;28.12;44.93;99968.97;5114238;28;20028;-72
2022/08/06 07:22:41;;;;;;;8.52;7.03;;;;;;;28.10;44.64;99966.44;5114896;28;20036;-72
2022/08/06 07:25:09;;;;;;;12.50;6.82;;;;;;;28.10;44.60;99968.34;5114931;28;20035;-72
2022/08/06 07:27:38;;;;;;;10.57;7.35;;;;;;;28.11;44.78;99964.56;5113917;28;20031;-71
2022/08/06 07:30:05;;;;;;;8.77;6.78;;;;;;;28.10;44.71;99958.28;5114847;28;20035;-71
2022/08/06 07:32:33;;;;;;;8.07;6.35;;;;;;;28.10;44.54;99952.03;5113938;28;20032;-71
2022/08/06 07:35:01;;;;;;;8.93;6.35;;;;;;;28.11;44.97;99967.28;5114967;28;20046;-71
2022/08/06 07:37:29;;;;;;;13.30;7.57;;;;;;;28.11;45.06;99953.69;5111528;28;20032;-72
2022/08/06 07:39:57;;;;;;;8.63;6.65;;;;;;;28.11;44.52;99956.41;5094227;28;20042;-71
2022/08/06 07:42:24;;;;;;;12.40;6.60;;;;;;;28.12;44.77;99960.78;5093790;28;20032;-71
2022/08/06 07:44:56;;;;;;;13.57;7.13;;;;;;;28.12;45.05;99963.53;5094446;28;20368;-71
2022/08/06 07:47:27;;;;;;;9.05;7.10;;;;;;;28.11;44.42;99956.41;5108451;28;20040;-71
2022/08/06 07:49:55;;;;;;;10.38;7.13;;;;;;;28.12;44.69;99955.34;5114320;28;20055;-72
2022/08/06 07:52:21;;;;;;;11.60;7.05;;;;;;;28.10;44.81;99952.84;5114789;28;20031;-72
2022/08/06 07:54:48;;;;;;;9.07;6.68;;;;;;;28.11;44.66;99959.94;5114272;28;20034;-71
2022/08/06 07:57:14;;;;;;;8.60;6.55;;;;;;;28.12;44.74;99958.06;5113494;28;20051;-71
2022/08/06 07:59:40;;;;;;;8.93;6.28;;;;;;;28.12;44.42;99952.63;5113868;28;20042;-72
2022/08/06 08:02:09;;;;;;;10.07;6.32;;;;;;;28.12;44.29;99950.72;5113921;28;20080;-72
2022/08/06 08:07:24;;;;;;;7.18;5.50;;;;;;;28.11;44.63;99951.78;5113841;28;20097;-71
2022/08/06 08:09:51;;;;;;;7.05;6.05;;;;;;;28.10;44.53;99949.31;5113971;28;20035;-72
2022/08/06 08:12:18;;;;;;;8.57;6.18;;;;;;;28.11;44.24;99949.06;5113562;28;20047;-71
2022/08/06 08:14:45;;;;;;;9.30;5.93;;;;;;;28.11;44.60;99946.34;5113685;28;20054;-72
2022/08/06 08:17:11;;;;;;;7.25;6.25;;;;;;;28.13;44.24;99957.84;5112595;28;20458;-71
2022/08/06 08:19:37;;;;;;;8.00;5.80;;;;;;;28.12;44.49;99955.34;5113612;28;20073;-71
2022/08/06 08:22:06;;;;;;;8.48;5.70;;;;;;;28.11;44.22;99949.06;5113405;28;20039;-71
2022/08/06 08:24:36;;;;;;;9.38;6.30;;;;;;;28.12;44.53;99944.47;5113947;28;20043;-72
2022/08/06 08:27:03;;;;;;;9.02;6.32;;;;;;;28.13;44.17;99943.41;5111977;28;20046;-71
2022/08/06 08:29:29;;;;;;;11.18;6.03;;;;;;;28.14;44.27;99943.19;5093012;28;20499;-72
2022/08/06 08:31:55;;;;;;;7.60;5.72;;;;;;;28.14;43.94;99945.91;5092953;28;20043;-72
2022/08/06 08:34:21;;;;;;;6.63;6.00;;;;;;;28.15;44.31;99946.75;5093027;28;20092;-71
2022/08/06 08:36:46;;;;;;;6.07;5.50;;;;;;;28.14;44.38;99947.81;5102117;28;20039;-72
2022/08/06 08:39:14;;;;;;;5.60;5.03;;;;;;;28.13;44.01;99932.53;5113050;28;20038;-72
2022/08/06 08:41:44;;;;;;;6.25;5.55;;;;;;;28.14;44.33;99939.66;5112481;28;20035;-72
2022/08/06 08:44:11;;;;;;;7.30;5.57;;;;;;;28.13;43.97;99938.78;5113226;28;20506;-72
2022/08/06 08:46:42;;;;;;;8.00;5.25;;;;;;;28.15;43.96;99947.56;5112754;28;20364;-72
2022/08/06 08:49:19;;;;;;;6.57;5.03;;;;;;;28.15;44.08;99947.56;5112992;28;20478;-72
2022/08/06 08:51:46;;;;;;;6.70;5.70;;;;;;;28.14;44.10;99943.19;5113357;28;20027;-70
2022/08/06 08:54:15;;;;;;;6.60;5.80;;;;;;;28.15;44.33;99933.97;5113365;28;20038;-72
2022/08/06 08:56:41;;;;;;;6.55;5.55;;;;;;;28.15;44.12;99933.16;5112246;28;20124;-72
2022/08/06 08:59:07;;;;;;;6.65;5.20;;;;;;;28.16;43.94;99940.25;5110096;28;20110;-72
2022/08/06 09:01:33;;;;;;;7.60;5.10;;;;;;;28.15;44.04;99928.53;5092555;28;20055;-72
2022/08/06 09:04:03;;;;;;;13.23;5.63;;;;;;;28.16;44.30;99924.75;5092642;28;20038;-72
2022/08/06 09:06:28;;;;;;;7.15;5.70;;;;;;;28.16;44.27;99926.66;5097086;28;20031;-73
2022/08/06 09:08:55;;;;;;;8.70;5.78;;;;;;;28.17;44.14;99926.41;5112811;28;20119;-72
2022/08/06 09:11:22;;;;;;;7.55;4.75;;;;;;;28.19;44.04;99917.19;5111860;28;20024;-73
2022/08/06 09:13:47;;;;;;;6.43;5.70;;;;;;;28.19;44.26;99917.19;5112932;28;20035;-72
2022/08/06 09:16:13;;;;;;;6.40;5.40;;;;;;;28.18;44.10;99921.78;5112654;28;20077;-72
2022/08/06 09:18:39;;;;;;;6.60;5.93;;;;;;;28.17;43.88;99922.84;5112079;28;20042;-71
2022/08/06 09:21:05;;;;;;;6.18;5.57;;;;;;;28.18;43.89;99924.50;5112497;28;20024;-73
2022/08/06 09:23:30;;;;;;;12.93;6.80;;;;;;;28.18;43.96;99924.50;5113095;28;20111;-72
2022/08/06 09:25:56;;;;;;;8.10;5.57;;;;;;;28.19;43.79;99926.16;5112735;28;20467;-73
2022/08/06 09:28:42;;;;;;;6.32;5.07;;;;;;;28.22;43.72;99920.28;5112319;28;20035;-74
2022/08/06 09:31:10;;;;;;;7.88;5.47;;;;;;;28.21;43.86;99924.06;5112903;28;20038;-73
2022/08/06 09:34:00;;;;;;;7.38;6.50;;;;;;;28.24;44.08;99920.03;5112556;28;20080;-73
2022/08/06 09:36:26;;;;;;;8.13;4.85;;;;;;;28.23;44.02;99921.94;5094137;28;20126;-74
2022/08/06 09:38:56;;;;;;;14.55;6.25;;;;;;;28.24;43.96;99920.88;5111263;28;20040;-73
2022/08/06 09:41:27;;;;;;;6.60;5.43;;;;;;;28.24;43.92;99915.44;5093845;28;20448;-74
2022/08/06 09:43:54;;;;;;;;;;;;;;;28.19;43.89;99911.75;5112993;28;20042;-73
2022/08/06 09:46:42;;;;;;;7.03;5.15;;;;;;;28.23;43.88;99913.78;5112483;28;19911;-73
2022/08/06 09:49:10;;;;;;;7.88;5.45;;;;;;;28.26;43.95;99916.06;5110943;28;20114;-72
2022/08/06 09:51:37;;;;;;;6.97;4.70;;;;;;;28.26;43.42;99907.88;5111569;28;20047;-72
2022/08/06 09:54:05;;;;;;;7.57;5.20;;;;;;;28.27;43.58;99904.09;5112193;28;20100;-72
2022/08/06 09:56:31;;;;;;;7.53;5.65;;;;;;;28.29;43.50;99903.88;5111980;28;20066;-73
2022/08/06 09:59:01;;;;;;;6.70;4.88;;;;;;;28.30;43.58;99906.38;5112480;28;20066;-73
2022/08/06 10:01:27;;;;;;;6.85;4.78;;;;;;;28.30;43.23;99903.66;5113318;28;20458;-72
2022/08/06 10:03:57;;;;;;;8.63;5.22;;;;;;;28.32;43.56;99901.50;5115659;28;20044;-71
2022/08/06 10:06:23;;;;;;;8.18;5.18;;;;;;;28.34;43.56;99904.03;5102672;28;20483;-72
2022/08/06 10:09:04;;;;;;;7.47;5.85;;;;;;;28.35;43.12;99904.84;5116144;28;20038;-72
2022/08/06 10:11:48;;;;;;;9.07;5.95;;;;;;;28.36;43.50;99910.06;5116099;28;20043;-73
2022/08/06 10:14:40;;;;;;;6.68;5.32;;;;;;;28.35;43.56;99900.25;5115848;28;20053;-72
2022/08/06 10:17:17;;;;;;;6.05;5.45;;;;;;;28.36;43.60;99898.34;5094691;28;20526;-72
2022/08/06 10:19:47;;;;;;;7.82;5.15;;;;;;;28.34;43.46;99901.31;5116107;28;20035;-72
2022/08/06 10:22:15;;;;;;;9.18;5.63;;;;;;;28.35;43.25;99902.13;5115326;28;20036;-72
2022/08/06 10:24:51;;;;;;;7.15;5.47;;;;;;;28.33;43.54;99897.72;5115725;28;20092;-71
2022/08/06 10:27:20;;;;;;;6.72;5.38;;;;;;;28.32;43.11;99900.69;5115676;28;20087;-71
2022/08/06 10:30:00;;;;;;;5.85;5.28;;;;;;;28.32;43.17;99890.63;5115389;28;20027;-71
2022/08/06 10:32:34;;;;;;;5.50;4.95;;;;;;;28.31;43.38;99879.97;5114803;28;20032;-72
2022/08/06 10:35:05;;;;;;;13.40;5.43;;;;;;;28.32;43.28;99882.47;5115108;28;20043;-72
2022/08/06 10:37:35;;;;;;;6.60;5.10;;;;;;;28.32;43.46;99878.94;5113145;28;20387;-73
2022/08/06 10:40:02;;;;;;;11.93;5.68;;;;;;;28.31;43.21;99871.81;5095393;28;20031;-72
2022/08/06 10:42:29;;;;;;;7.22;4.75;;;;;;;28.32;42.54;99874.31;5098732;28;20376;-72
2022/08/06 10:44:55;;;;;;;7.45;5.07;;;;;;;28.38;42.70;99874.44;5115356;28;20050;-74
2022/08/06 10:47:22;;;;;;;7.20;5.00;;;;;;;28.37;42.80;99862.75;5115313;28;20031;-72
2022/08/06 10:49:48;;;;;;;5.53;4.93;;;;;;;28.35;42.59;99858.56;5115137;28;20505;-72
2022/08/06 10:52:14;;;;;;;6.75;4.80;;;;;;;28.33;42.72;99850.66;5114592;28;20027;-73
2022/08/06 10:54:40;;;;;;;5.32;4.72;;;;;;;28.32;42.72;99843.56;5115061;28;20040;-69
2022/08/06 10:57:12;;;;;;;10.07;5.10;;;;;;;28.33;42.76;99842.50;5113777;28;20066;-72
2022/08/06 10:59:39;;;;;;;6.13;5.57;;;;;;;28.33;42.68;99843.31;5114807;28;20114;-71
2022/08/06 11:02:29;;;;;;;7.07;5.63;;;;;;;28.36;42.35;99846.63;5114645;28;20031;-72
2022/08/06 11:05:06;;;;;;;9.10;5.00;;;;;;;28.36;42.46;99849.34;5114900;28;20035;-71
2022/08/06 11:08:02;;;;;;;9.27;5.60;;;;;;;28.36;42.03;99838.47;5114028;28;20156;-71
2022/08/06 11:10:58;;;;;;;7.78;5.75;;;;;;;28.36;42.31;99838.47;5106698;28;20023;-72
2022/08/06 11:13:33;;;;;;;7.32;4.93;;;;;;;28.36;42.27;99841.19;5114596;28;20058;-72
2022/08/06 11:15:59;;;;;;;9.27;4.57;;;;;;;28.35;42.54;99834.09;5114805;28;20032;-70
2022/08/06 11:18:24;;;;;;;5.47;4.80;;;;;;;28.35;42.60;99837.66;5114633;28;20031;-71
2022/08/06 11:20:52;;;;;;;13.18;5.75;;;;;;;28.36;42.60;99833.03;5115274;28;20038;-71
2022/08/06 11:23:17;;;;;;;6.75;5.97;;;;;;;28.35;42.73;99829.50;5115025;28;20027;-72
2022/08/06 11:25:44;;;;;;;10.30;5.13;;;;;;;28.36;42.43;99824.88;5114763;28;20087;-72
2022/08/06 11:28:15;;;;;;;8.15;5.72;;;;;;;28.38;42.28;99825.47;5100080;28;20036;-72
2022/08/06 11:30:48;;;;;;;10.43;5.43;;;;;;;28.37;42.69;99821.09;5094048;28;20060;-71
2022/08/06 11:33:19;;;;;;;7.97;5.43;;;;;;;28.37;42.54;99826.53;5094465;28;20480;-73
2022/08/06 11:35:48;;;;;;;8.85;5.20;;;;;;;28.36;42.71;99823.00;5096108;28;20036;-72
2022/08/06 11:38:35;;;;;;;7.63;4.70;;;;;;;28.34;42.69;99811.50;5114159;28;20039;-72
2022/08/06 11:41:01;;;;;;;6.45;5.50;;;;;;;28.35;42.65;99813.16;5114310;28;20406;-72
2022/08/06 11:43:47;;;;;;;7.65;5.50;;;;;;;28.39;42.74;99802.63;5114340;28;20031;-72
2022/08/06 11:46:20;;;;;;;6.43;5.40;;;;;;;28.42;42.48;99804.91;5114399;28;20055;-72